首页
METAR-TAF:

METAR-TAF

机场 :

弗罗西诺内, 意大利

纬度: 41-38N, 经度: 013-18E, 海拔: 180米

当前天气观测

该预报发布于10小时和32分钟前的17:55 UTC
风速3节,风向西南
温度 3°C
湿度 70%
气压 1024 hPa
能见度10公里或以上
1500米以下无云,无积雨云

METAR: LIRH 181755Z 23003KT CAVOK 03/M02 Q1024 RMK SKC MON INVIS NC VIS MIN 9999 WIND THR16 /////KT BLU

时间: 05:27 (04:27 UTC)

预报

该预报发布于14小时和27分钟前的14:00 UTC
预报有效从18日的 15点(UTC)到 18日的 24点(UTC)
风速5节,风向西南
能见度10公里或以上
少量云层高于3500英尺
成为
从 18日的 18点(UTC)到 18日的 20点(UTC)
风速3节,风向多变
能見度: 8000

TAF: LIRH 181400Z 1815/1824 23005KT 9999 FEW035 BECMG 1818/1820 VRB03KT 8000

超过4000个机场的气象观测和天气预报(METAR&TAF报告)。

可查询的气象台以黄色和红色小点在地图上表示。

将鼠标移到小点上方,可查看气象台名称。

然后点击查看天气观测和预报。

如需切换地图:点击带黑十字的绿色按钮放大地图;点击带横线的绿色按钮缩小地图;或者点击绿色箭头查看邻近地区的地图。


METAR-TAF: